sensor_id;sensor_type;location;lat;lon;timestamp;pressure;altitude;pressure_sealevel;temperature;humidity
28079;BME280;15388;42.238;24.684;2022-07-23T00:00:08;99527.06;;;22.48;68.63
28079;BME280;15388;42.238;24.684;2022-07-23T00:02:33;99524.16;;;22.50;68.47
28079;BME280;15388;42.238;24.684;2022-07-23T00:04:58;99531.28;;;22.37;68.99
28079;BME280;15388;42.238;24.684;2022-07-23T00:07:24;99533.03;;;22.11;69.19
28079;BME280;15388;42.238;24.684;2022-07-23T00:09:49;99535.19;;;21.96;69.69
28079;BME280;15388;42.238;24.684;2022-07-23T00:12:14;99528.94;;;21.88;72.57
28079;BME280;15388;42.238;24.684;2022-07-23T00:14:39;99528.13;;;21.81;73.40
28079;BME280;15388;42.238;24.684;2022-07-23T00:17:05;99533.53;;;21.81;76.94
28079;BME280;15388;42.238;24.684;2022-07-23T00:19:30;99536.00;;;21.62;79.22
28079;BME280;15388;42.238;24.684;2022-07-23T00:21:56;99529.78;;;21.55;80.07
28079;BME280;15388;42.238;24.684;2022-07-23T00:24:21;99530.41;;;21.44;81.42
28079;BME280;15388;42.238;24.684;2022-07-23T00:26:46;99538.13;;;21.40;81.92
28079;BME280;15388;42.238;24.684;2022-07-23T00:29:11;99531.44;;;21.29;82.79
28079;BME280;15388;42.238;24.684;2022-07-23T00:31:37;99532.28;;;21.09;84.77
28079;BME280;15388;42.238;24.684;2022-07-23T00:34:02;99528.53;;;21.04;85.83
28079;BME280;15388;42.238;24.684;2022-07-23T00:36:27;99525.13;;;20.81;86.85
28079;BME280;15388;42.238;24.684;2022-07-23T00:38:53;99527.19;;;20.72;87.38
28079;BME280;15388;42.238;24.684;2022-07-23T00:41:19;99533.38;;;20.66;86.86
28079;BME280;15388;42.238;24.684;2022-07-23T00:43:44;99538.72;;;20.46;86.23
28079;BME280;15388;42.238;24.684;2022-07-23T00:46:10;99530.81;;;20.38;86.37
28079;BME280;15388;42.238;24.684;2022-07-23T00:48:35;99529.31;;;20.28;86.59
28079;BME280;15388;42.238;24.684;2022-07-23T00:51:00;99529.09;;;20.30;84.64
28079;BME280;15388;42.238;24.684;2022-07-23T00:53:25;99534.56;;;20.36;83.54
28079;BME280;15388;42.238;24.684;2022-07-23T00:55:51;99531.88;;;20.50;82.09
28079;BME280;15388;42.238;24.684;2022-07-23T00:58:16;99528.38;;;20.56;81.03
28079;BME280;15388;42.238;24.684;2022-07-23T01:00:42;99537.50;;;20.48;80.25
28079;BME280;15388;42.238;24.684;2022-07-23T01:03:07;99532.97;;;20.56;79.49
28079;BME280;15388;42.238;24.684;2022-07-23T01:05:33;99533.38;;;20.53;79.01
28079;BME280;15388;42.238;24.684;2022-07-23T01:07:58;99528.19;;;20.58;78.40
28079;BME280;15388;42.238;24.684;2022-07-23T01:10:24;99522.38;;;20.68;77.75
28079;BME280;15388;42.238;24.684;2022-07-23T01:13:02;99531.34;;;20.75;77.38
28079;BME280;15388;42.238;24.684;2022-07-23T01:15:28;99531.34;;;20.75;77.86
28079;BME280;15388;42.238;24.684;2022-07-23T01:17:53;99536.75;;;20.68;78.42
28079;BME280;15388;42.238;24.684;2022-07-23T01:20:19;99529.47;;;20.69;78.73
28079;BME280;15388;42.238;24.684;2022-07-23T01:22:45;99529.69;;;20.74;78.94
28079;BME280;15388;42.238;24.684;2022-07-23T01:25:10;99539.03;;;20.78;78.92
28079;BME280;15388;42.238;24.684;2022-07-23T01:27:36;99530.94;;;20.78;79.24
28079;BME280;15388;42.238;24.684;2022-07-23T01:30:02;99530.31;;;20.76;80.16
28079;BME280;15388;42.238;24.684;2022-07-23T01:32:27;99527.16;;;20.66;80.46
28079;BME280;15388;42.238;24.684;2022-07-23T01:34:53;99525.06;;;20.68;80.85
28079;BME280;15388;42.238;24.684;2022-07-23T01:37:18;99529.03;;;20.58;81.15
28079;BME280;15388;42.238;24.684;2022-07-23T01:39:43;99526.28;;;20.52;81.78
28079;BME280;15388;42.238;24.684;2022-07-23T01:42:08;99530.41;;;20.47;82.33
28079;BME280;15388;42.238;24.684;2022-07-23T01:44:34;99530.22;;;20.42;83.45
28079;BME280;15388;42.238;24.684;2022-07-23T01:46:59;99526.59;;;20.28;84.97
28079;BME280;15388;42.238;24.684;2022-07-23T01:49:25;99532.00;;;20.28;85.74
28079;BME280;15388;42.238;24.684;2022-07-23T01:51:50;99528.44;;;20.21;86.98
28079;BME280;15388;42.238;24.684;2022-07-23T01:54:28;99527.56;;;20.14;89.25
28079;BME280;15388;42.238;24.684;2022-07-23T01:56:54;99527.34;;;20.08;89.92
28079;BME280;15388;42.238;24.684;2022-07-23T01:59:19;99532.75;;;20.08;90.11
28079;BME280;15388;42.238;24.684;2022-07-23T02:01:44;99530.91;;;20.16;90.40
28079;BME280;15388;42.238;24.684;2022-07-23T02:04:10;99528.69;;;20.26;90.50
28079;BME280;15388;42.238;24.684;2022-07-23T02:06:35;99531.22;;;20.34;89.77
28079;BME280;15388;42.238;24.684;2022-07-23T02:09:00;99526.03;;;20.40;90.26
28079;BME280;15388;42.238;24.684;2022-07-23T02:11:26;99521.91;;;20.44;89.34
28079;BME280;15388;42.238;24.684;2022-07-23T02:13:51;99525.41;;;20.44;89.85
28079;BME280;15388;42.238;24.684;2022-07-23T02:16:16;99528.56;;;20.41;90.63
28079;BME280;15388;42.238;24.684;2022-07-23T02:18:41;99523.53;;;20.38;91.04
28079;BME280;15388;42.238;24.684;2022-07-23T02:21:07;99528.22;;;20.22;92.00
28079;BME280;15388;42.238;24.684;2022-07-23T02:23:32;99527.03;;;20.25;92.34
28079;BME280;15388;42.238;24.684;2022-07-23T02:25:57;99526.59;;;20.28;92.23
28079;BME280;15388;42.238;24.684;2022-07-23T02:28:23;99529.88;;;20.17;92.76
28079;BME280;15388;42.238;24.684;2022-07-23T02:30:48;99524.47;;;20.17;93.08
28079;BME280;15388;42.238;24.684;2022-07-23T02:33:13;99532.38;;;20.18;93.15
28079;BME280;15388;42.238;24.684;2022-07-23T02:35:38;99529.47;;;20.20;95.04
28079;BME280;15388;42.238;24.684;2022-07-23T02:38:04;99529.09;;;20.23;96.59
28079;BME280;15388;42.238;24.684;2022-07-23T02:40:29;99528.44;;;20.21;96.96
28079;BME280;15388;42.238;24.684;2022-07-23T02:42:54;99532.34;;;20.11;98.14
28079;BME280;15388;42.238;24.684;2022-07-23T02:45:19;99536.69;;;20.06;98.28
28079;BME280;15388;42.238;24.684;2022-07-23T02:47:45;99538.75;;;20.04;98.94
28079;BME280;15388;42.238;24.684;2022-07-23T02:50:10;99537.28;;;20.01;99.18
28079;BME280;15388;42.238;24.684;2022-07-23T02:52:37;99544.28;;;19.95;99.49
28079;BME280;15388;42.238;24.684;2022-07-23T02:55:02;99539.88;;;19.88;98.41
28079;BME280;15388;42.238;24.684;2022-07-23T02:57:27;99545.91;;;19.90;98.06
28079;BME280;15388;42.238;24.684;2022-07-23T02:59:53;99548.22;;;19.93;98.25
28079;BME280;15388;42.238;24.684;2022-07-23T03:02:18;99549.22;;;19.92;97.88
28079;BME280;15388;42.238;24.684;2022-07-23T03:04:43;99542.19;;;19.97;98.92
28079;BME280;15388;42.238;24.684;2022-07-23T03:07:09;99545.31;;;19.94;98.83
28079;BME280;15388;42.238;24.684;2022-07-23T03:09:34;99544.25;;;19.89;99.62
28079;BME280;15388;42.238;24.684;2022-07-23T03:11:59;99554.56;;;19.78;100.00
28079;BME280;15388;42.238;24.684;2022-07-23T03:14:25;99561.91;;;19.63;100.00
28079;BME280;15388;42.238;24.684;2022-07-23T03:16:50;99551.41;;;19.46;100.00
28079;BME280;15388;42.238;24.684;2022-07-23T03:19:15;99570.50;;;19.44;100.00
28079;BME280;15388;42.238;24.684;2022-07-23T03:21:40;99559.44;;;19.17;100.00
28079;BME280;15388;42.238;24.684;2022-07-23T03:24:09;99558.53;;;19.10;100.00
28079;BME280;15388;42.238;24.684;2022-07-23T03:26:34;99562.53;;;19.14;100.00
28079;BME280;15388;42.238;24.684;2022-07-23T03:29:00;99564.50;;;19.05;100.00
28079;BME280;15388;42.238;24.684;2022-07-23T03:31:26;99561.81;;;19.05;100.00
28079;BME280;15388;42.238;24.684;2022-07-23T03:33:51;99567.59;;;19.02;100.00
28079;BME280;15388;42.238;24.684;2022-07-23T03:36:17;99558.59;;;18.95;100.00
28079;BME280;15388;42.238;24.684;2022-07-23T03:38:42;99562.94;;;18.96;100.00
28079;BME280;15388;42.238;24.684;2022-07-23T03:41:07;99569.75;;;18.92;100.00
28079;BME280;15388;42.238;24.684;2022-07-23T03:43:33;99569.22;;;18.81;100.00
28079;BME280;15388;42.238;24.684;2022-07-23T03:45:58;99577.06;;;18.76;100.00
28079;BME280;15388;42.238;24.684;2022-07-23T03:48:23;99563.94;;;18.73;100.00
28079;BME280;15388;42.238;24.684;2022-07-23T03:50:49;99567.66;;;18.72;100.00
28079;BME280;15388;42.238;24.684;2022-07-23T03:53:14;99575.38;;;18.75;100.00
28079;BME280;15388;42.238;24.684;2022-07-23T03:55:39;99569.72;;;18.70;100.00
28079;BME280;15388;42.238;24.684;2022-07-23T03:58:04;99577.34;;;18.66;100.00
28079;BME280;15388;42.238;24.684;2022-07-23T04:00:30;99567.53;;;18.58;100.00
28079;BME280;15388;42.238;24.684;2022-07-23T04:02:55;99578.66;;;18.55;100.00
28079;BME280;15388;42.238;24.684;2022-07-23T04:05:20;99572.13;;;18.65;100.00
28079;BME280;15388;42.238;24.684;2022-07-23T04:07:46;99571.00;;;18.74;100.00
28079;BME280;15388;42.238;24.684;2022-07-23T04:10:11;99573.69;;;18.74;100.00
28079;BME280;15388;42.238;24.684;2022-07-23T04:12:36;99566.53;;;18.81;100.00
28079;BME280;15388;42.238;24.684;2022-07-23T04:15:02;99565.41;;;18.91;100.00
28079;BME280;15388;42.238;24.684;2022-07-23T04:17:27;99571.97;;;18.88;100.00
28079;BME280;15388;42.238;24.684;2022-07-23T04:19:53;99572.44;;;18.92;100.00
28079;BME280;15388;42.238;24.684;2022-07-23T04:22:18;99570.78;;;18.91;100.00
28079;BME280;15388;42.238;24.684;2022-07-23T04:24:43;99574.72;;;19.10;100.00
28079;BME280;15388;42.238;24.684;2022-07-23T04:27:09;99575.06;;;19.22;100.00
28079;BME280;15388;42.238;24.684;2022-07-23T04:29:34;99573.25;;;19.29;100.00
28079;BME280;15388;42.238;24.684;2022-07-23T04:31:59;99568.50;;;19.31;100.00
28079;BME280;15388;42.238;24.684;2022-07-23T04:34:25;99576.41;;;19.55;100.00
28079;BME280;15388;42.238;24.684;2022-07-23T04:36:51;99576.94;;;19.72;100.00
28079;BME280;15388;42.238;24.684;2022-07-23T04:39:17;99580.53;;;19.79;100.00
28079;BME280;15388;42.238;24.684;2022-07-23T04:41:42;99573.31;;;19.86;100.00
28079;BME280;15388;42.238;24.684;2022-07-23T04:44:07;99586.75;;;20.02;100.00
28079;BME280;15388;42.238;24.684;2022-07-23T04:46:32;99586.56;;;20.10;100.00
28079;BME280;15388;42.238;24.684;2022-07-23T04:48:58;99578.16;;;20.27;99.68
28079;BME280;15388;42.238;24.684;2022-07-23T04:51:23;99578.78;;;20.35;98.45
28079;BME280;15388;42.238;24.684;2022-07-23T04:53:48;99574.31;;;20.56;95.14
28079;BME280;15388;42.238;24.684;2022-07-23T04:56:14;99577.69;;;20.72;92.15
28079;BME280;15388;42.238;24.684;2022-07-23T04:58:40;99577.53;;;20.80;91.33
28079;BME280;15388;42.238;24.684;2022-07-23T05:01:05;99579.69;;;20.92;89.86
28079;BME280;15388;42.238;24.684;2022-07-23T05:03:30;99575.97;;;21.06;88.43
28079;BME280;15388;42.238;24.684;2022-07-23T05:05:56;99568.50;;;21.22;88.80
28079;BME280;15388;42.238;24.684;2022-07-23T05:08:21;99584.13;;;21.47;88.57
28079;BME280;15388;42.238;24.684;2022-07-23T05:10:46;99570.59;;;21.60;85.26
28079;BME280;15388;42.238;24.684;2022-07-23T05:13:13;99575.19;;;21.80;83.67
28079;BME280;15388;42.238;24.684;2022-07-23T05:15:39;99576.63;;;22.03;81.12
28079;BME280;15388;42.238;24.684;2022-07-23T05:18:04;99574.69;;;22.24;76.00
28079;BME280;15388;42.238;24.684;2022-07-23T05:20:29;99576.09;;;22.40;77.44
28079;BME280;15388;42.238;24.684;2022-07-23T05:22:54;99572.31;;;22.61;73.58
28079;BME280;15388;42.238;24.684;2022-07-23T05:25:20;99569.47;;;22.82;71.83
28079;BME280;15388;42.238;24.684;2022-07-23T05:27:45;99570.66;;;22.93;70.03
28079;BME280;15388;42.238;24.684;2022-07-23T05:30:11;99574.78;;;23.02;70.69
28079;BME280;15388;42.238;24.684;2022-07-23T05:32:36;99576.22;;;23.11;67.60
28079;BME280;15388;42.238;24.684;2022-07-23T05:35:02;99571.31;;;23.20;68.85
28079;BME280;15388;42.238;24.684;2022-07-23T05:37:27;99566.25;;;23.31;68.42
28079;BME280;15388;42.238;24.684;2022-07-23T05:39:52;99564.06;;;23.46;68.30
28079;BME280;15388;42.238;24.684;2022-07-23T05:42:18;99563.94;;;23.60;69.68
28079;BME280;15388;42.238;24.684;2022-07-23T05:44:43;99571.88;;;23.61;68.53
28079;BME280;15388;42.238;24.684;2022-07-23T05:47:08;99569.34;;;23.66;68.80
28079;BME280;15388;42.238;24.684;2022-07-23T05:49:33;99576.34;;;23.74;69.61
28079;BME280;15388;42.238;24.684;2022-07-23T05:52:04;99574.88;;;23.78;69.01
28079;BME280;15388;42.238;24.684;2022-07-23T05:54:30;99569.28;;;23.92;69.71
28079;BME280;15388;42.238;24.684;2022-07-23T05:56:55;99563.94;;;24.04;69.75
28079;BME280;15388;42.238;24.684;2022-07-23T05:59:20;99573.81;;;24.24;69.38
28079;BME280;15388;42.238;24.684;2022-07-23T06:01:46;99560.50;;;24.34;69.34
28079;BME280;15388;42.238;24.684;2022-07-23T06:04:11;99557.91;;;24.58;68.50
28079;BME280;15388;42.238;24.684;2022-07-23T06:06:36;99568.63;;;24.72;66.91
28079;BME280;15388;42.238;24.684;2022-07-23T06:09:02;99571.69;;;24.94;65.18
28079;BME280;15388;42.238;24.684;2022-07-23T06:11:27;99570.19;;;25.10;63.11
28079;BME280;15388;42.238;24.684;2022-07-23T06:13:52;99564.94;;;25.27;64.39
28079;BME280;15388;42.238;24.684;2022-07-23T06:16:18;99565.53;;;25.41;59.51
28079;BME280;15388;42.238;24.684;2022-07-23T06:18:43;99570.78;;;25.55;59.72
28079;BME280;15388;42.238;24.684;2022-07-23T06:21:08;99565.00;;;25.63;56.99
28079;BME280;15388;42.238;24.684;2022-07-23T06:23:34;99574.47;;;25.73;55.60
28079;BME280;15388;42.238;24.684;2022-07-23T06:25:59;99569.50;;;25.81;56.16
28079;BME280;15388;42.238;24.684;2022-07-23T06:28:24;99569.38;;;25.88;56.71
28079;BME280;15388;42.238;24.684;2022-07-23T06:30:49;99569.94;;;26.02;56.92
28079;BME280;15388;42.238;24.684;2022-07-23T06:33:15;99565.91;;;26.17;56.90
28079;BME280;15388;42.238;24.684;2022-07-23T06:35:40;99557.47;;;26.18;56.73
28079;BME280;15388;42.238;24.684;2022-07-23T06:38:06;99558.56;;;26.29;57.68
28079;BME280;15388;42.238;24.684;2022-07-23T06:40:31;99562.44;;;26.45;57.02
28079;BME280;15388;42.238;24.684;2022-07-23T06:42:56;99557.19;;;26.56;58.13
28079;BME280;15388;42.238;24.684;2022-07-23T06:45:22;99558.19;;;26.67;57.93
28079;BME280;15388;42.238;24.684;2022-07-23T06:47:47;99546.16;;;26.80;56.31
28079;BME280;15388;42.238;24.684;2022-07-23T06:50:12;99545.88;;;26.93;56.43
28079;BME280;15388;42.238;24.684;2022-07-23T06:52:38;99552.97;;;26.94;57.13
28079;BME280;15388;42.238;24.684;2022-07-23T06:55:03;99541.44;;;27.04;58.04
28079;BME280;15388;42.238;24.684;2022-07-23T06:57:28;99538.63;;;27.16;56.46
28079;BME280;15388;42.238;24.684;2022-07-23T06:59:54;99542.19;;;27.34;56.59
28079;BME280;15388;42.238;24.684;2022-07-23T07:02:19;99543.75;;;27.47;54.45
28079;BME280;15388;42.238;24.684;2022-07-23T07:04:44;99545.75;;;27.52;53.39
28079;BME280;15388;42.238;24.684;2022-07-23T07:07:10;99540.28;;;27.69;54.55
28079;BME280;15388;42.238;24.684;2022-07-23T07:09:36;99538.31;;;27.81;53.86
28079;BME280;15388;42.238;24.684;2022-07-23T07:12:02;99543.22;;;28.02;52.42
28079;BME280;15388;42.238;24.684;2022-07-23T07:14:28;99537.94;;;28.17;50.72
28079;BME280;15388;42.238;24.684;2022-07-23T07:16:53;99537.00;;;28.29;48.49
28079;BME280;15388;42.238;24.684;2022-07-23T07:19:18;99534.78;;;28.48;48.80
28079;BME280;15388;42.238;24.684;2022-07-23T07:21:44;99536.75;;;28.53;48.57
28079;BME280;15388;42.238;24.684;2022-07-23T07:24:09;99530.28;;;28.64;45.65
28079;BME280;15388;42.238;24.684;2022-07-23T07:26:34;99528.28;;;28.82;48.73
28079;BME280;15388;42.238;24.684;2022-07-23T07:29:00;99518.88;;;29.00;46.73
28079;BME280;15388;42.238;24.684;2022-07-23T07:31:25;99524.25;;;29.17;44.96
28079;BME280;15388;42.238;24.684;2022-07-23T07:33:51;99517.78;;;29.34;45.11
28079;BME280;15388;42.238;24.684;2022-07-23T07:36:16;99517.31;;;29.42;44.82
28079;BME280;15388;42.238;24.684;2022-07-23T07:38:41;99516.09;;;29.60;43.36
28079;BME280;15388;42.238;24.684;2022-07-23T07:41:07;99515.38;;;29.81;42.63
28079;BME280;15388;42.238;24.684;2022-07-23T07:43:32;99512.69;;;29.91;41.95
28079;BME280;15388;42.238;24.684;2022-07-23T07:45:58;99518.22;;;30.07;41.48
28079;BME280;15388;42.238;24.684;2022-07-23T07:48:24;99510.13;;;30.22;41.85
28079;BME280;15388;42.238;24.684;2022-07-23T07:50:49;99506.81;;;30.25;40.42
28079;BME280;15388;42.238;24.684;2022-07-23T07:53:14;99502.50;;;30.40;41.80
28079;BME280;15388;42.238;24.684;2022-07-23T07:55:39;99502.50;;;30.45;40.60
28079;BME280;15388;42.238;24.684;2022-07-23T07:58:05;99500.88;;;30.55;41.37
28079;BME280;15388;42.238;24.684;2022-07-23T08:00:30;99497.59;;;30.68;41.00
28079;BME280;15388;42.238;24.684;2022-07-23T08:02:55;99495.44;;;30.75;40.18
28079;BME280;15388;42.238;24.684;2022-07-23T08:05:22;99496.00;;;30.93;40.27
28079;BME280;15388;42.238;24.684;2022-07-23T08:07:47;99488.31;;;31.00;39.26
28079;BME280;15388;42.238;24.684;2022-07-23T08:10:12;99490.47;;;31.19;40.54
28079;BME280;15388;42.238;24.684;2022-07-23T08:12:41;99482.28;;;31.35;38.45
28079;BME280;15388;42.238;24.684;2022-07-23T08:15:07;99488.56;;;31.51;36.58
28079;BME280;15388;42.238;24.684;2022-07-23T08:17:33;99480.56;;;31.60;37.57
28079;BME280;15388;42.238;24.684;2022-07-23T08:19:58;99474.47;;;31.78;37.68
28079;BME280;15388;42.238;24.684;2022-07-23T08:22:23;99469.47;;;31.91;36.96
28079;BME280;15388;42.238;24.684;2022-07-23T08:24:48;99461.09;;;32.17;37.13
28079;BME280;15388;42.238;24.684;2022-07-23T08:27:14;99459.34;;;32.37;35.59
28079;BME280;15388;42.238;24.684;2022-07-23T08:29:39;99458.19;;;32.48;36.63
28079;BME280;15388;42.238;24.684;2022-07-23T08:32:04;99456.16;;;32.64;36.38
28079;BME280;15388;42.238;24.684;2022-07-23T08:34:29;99458.66;;;32.61;35.64
28079;BME280;15388;42.238;24.684;2022-07-23T08:36:55;99455.88;;;32.66;36.03
28079;BME280;15388;42.238;24.684;2022-07-23T08:39:20;99447.72;;;32.85;36.16
28079;BME280;15388;42.238;24.684;2022-07-23T08:41:45;99445.91;;;33.05;34.95
28079;BME280;15388;42.238;24.684;2022-07-23T08:44:13;99445.38;;;33.33;36.07
28079;BME280;15388;42.238;24.684;2022-07-23T08:46:38;99443.19;;;33.59;35.12
28079;BME280;15388;42.238;24.684;2022-07-23T08:49:04;99450.47;;;33.74;33.75
28079;BME280;15388;42.238;24.684;2022-07-23T08:51:29;99444.19;;;33.88;33.85
28079;BME280;15388;42.238;24.684;2022-07-23T08:53:56;99442.25;;;34.13;32.86
28079;BME280;15388;42.238;24.684;2022-07-23T08:56:22;99450.38;;;34.23;32.72
28079;BME280;15388;42.238;24.684;2022-07-23T08:58:47;99438.31;;;34.38;31.74
28079;BME280;15388;42.238;24.684;2022-07-23T09:01:12;99435.00;;;34.55;31.66
28079;BME280;15388;42.238;24.684;2022-07-23T09:03:39;99443.06;;;34.71;31.97
28079;BME280;15388;42.238;24.684;2022-07-23T09:06:04;99438.91;;;34.74;30.71
28079;BME280;15388;42.238;24.684;2022-07-23T09:10:59;99436.84;;;35.13;30.54
28079;BME280;15388;42.238;24.684;2022-07-23T09:16:30;99432.25;;;35.22;29.31
28079;BME280;15388;42.238;24.684;2022-07-23T09:19:00;99434.53;;;35.48;29.18
28079;BME280;15388;42.238;24.684;2022-07-23T09:21:26;99429.91;;;35.57;28.82
28079;BME280;15388;42.238;24.684;2022-07-23T09:26:24;99423.78;;;35.89;28.57
28079;BME280;15388;42.238;24.684;2022-07-23T09:28:53;99425.75;;;36.11;28.58
28079;BME280;15388;42.238;24.684;2022-07-23T09:31:20;99423.47;;;36.27;28.18
28079;BME280;15388;42.238;24.684;2022-07-23T09:33:45;99415.63;;;36.43;27.31
28079;BME280;15388;42.238;24.684;2022-07-23T09:36:10;99418.19;;;36.63;27.57
28079;BME280;15388;42.238;24.684;2022-07-23T09:38:36;99397.81;;;36.81;27.19
28079;BME280;15388;42.238;24.684;2022-07-23T09:41:12;99406.72;;;37.01;25.15
28079;BME280;15388;42.238;24.684;2022-07-23T09:43:38;99405.47;;;37.07;25.22
28079;BME280;15388;42.238;24.684;2022-07-23T09:48:51;99403.34;;;37.45;23.75
28079;BME280;15388;42.238;24.684;2022-07-23T09:51:21;99398.47;;;37.59;23.00
28079;BME280;15388;42.238;24.684;2022-07-23T09:54:01;99396.19;;;37.62;22.34
28079;BME280;15388;42.238;24.684;2022-07-23T09:56:27;99392.00;;;37.73;22.70
28079;BME280;15388;42.238;24.684;2022-07-23T09:58:52;99394.94;;;37.85;20.95
28079;BME280;15388;42.238;24.684;2022-07-23T10:01:27;99396.25;;;37.79;21.22
28079;BME280;15388;42.238;24.684;2022-07-23T10:03:53;99400.19;;;37.96;21.95
28079;BME280;15388;42.238;24.684;2022-07-23T10:06:18;99390.72;;;37.97;22.92
28079;BME280;15388;42.238;24.684;2022-07-23T10:08:44;99388.13;;;38.27;22.87
28079;BME280;15388;42.238;24.684;2022-07-23T10:11:13;99386.47;;;38.35;22.41
28079;BME280;15388;42.238;24.684;2022-07-23T10:13:39;99381.88;;;38.48;22.61
28079;BME280;15388;42.238;24.684;2022-07-23T10:16:15;99383.38;;;38.45;22.70
28079;BME280;15388;42.238;24.684;2022-07-23T10:18:41;99377.78;;;38.72;22.43
28079;BME280;15388;42.238;24.684;2022-07-23T10:21:07;99368.13;;;38.78;22.18
28079;BME280;15388;42.238;24.684;2022-07-23T10:23:35;99374.47;;;38.88;22.24
28079;BME280;15388;42.238;24.684;2022-07-23T10:29:02;99372.75;;;38.56;22.75
28079;BME280;15388;42.238;24.684;2022-07-23T10:34:31;99360.97;;;39.16;21.63
28079;BME280;15388;42.238;24.684;2022-07-23T10:39:31;99359.66;;;39.05;21.01
28079;BME280;15388;42.238;24.684;2022-07-23T10:44:42;99341.59;;;39.50;22.03
28079;BME280;15388;42.238;24.684;2022-07-23T10:47:08;99340.44;;;39.81;22.49
28079;BME280;15388;42.238;24.684;2022-07-23T10:49:40;99333.25;;;40.02;21.07
28079;BME280;15388;42.238;24.684;2022-07-23T10:57:06;99315.00;;;40.72;21.48
28079;BME280;15388;42.238;24.684;2022-07-23T11:02:21;99308.31;;;41.10;20.99
28079;BME280;15388;42.238;24.684;2022-07-23T11:04:48;99312.00;;;41.27;20.37
28079;BME280;15388;42.238;24.684;2022-07-23T11:07:15;99308.31;;;41.10;18.62
28079;BME280;15388;42.238;24.684;2022-07-23T11:09:41;99302.03;;;41.13;18.84
28079;BME280;15388;42.238;24.684;2022-07-23T11:17:21;99297.81;;;41.32;19.61
28079;BME280;15388;42.238;24.684;2022-07-23T11:22:46;99299.94;;;41.10;19.37
28079;BME280;15388;42.238;24.684;2022-07-23T11:25:12;99293.03;;;41.33;18.96
28079;BME280;15388;42.238;24.684;2022-07-23T11:27:41;99283.75;;;41.41;20.20
28079;BME280;15388;42.238;24.684;2022-07-23T11:30:07;99297.31;;;41.55;19.69
28079;BME280;15388;42.238;24.684;2022-07-23T11:32:37;99293.22;;;41.65;19.63
28079;BME280;15388;42.238;24.684;2022-07-23T11:35:18;99282.97;;;41.69;19.02
28079;BME280;15388;42.238;24.684;2022-07-23T11:37:44;99286.84;;;41.64;18.34
28079;BME280;15388;42.238;24.684;2022-07-23T11:40:11;99283.53;;;41.75;18.93
28079;BME280;15388;42.238;24.684;2022-07-23T11:42:37;99282.81;;;41.91;19.24
28079;BME280;15388;42.238;24.684;2022-07-23T11:45:04;99279.66;;;41.92;18.27
28079;BME280;15388;42.238;24.684;2022-07-23T11:47:29;99279.03;;;41.99;18.74
28079;BME280;15388;42.238;24.684;2022-07-23T11:49:55;99273.94;;;41.60;19.00
28079;BME280;15388;42.238;24.684;2022-07-23T11:52:21;99278.50;;;41.52;18.43
28079;BME280;15388;42.238;24.684;2022-07-23T11:54:47;99268.28;;;41.44;18.04
28079;BME280;15388;42.238;24.684;2022-07-23T11:57:13;99279.94;;;40.71;18.33
28079;BME280;15388;42.238;24.684;2022-07-23T11:59:38;99268.78;;;40.71;19.00
28079;BME280;15388;42.238;24.684;2022-07-23T12:02:04;99282.63;;;40.33;18.33
28079;BME280;15388;42.238;24.684;2022-07-23T12:09:52;99264.28;;;40.32;19.15
28079;BME280;15388;42.238;24.684;2022-07-23T12:12:17;99259.91;;;40.44;19.66
28079;BME280;15388;42.238;24.684;2022-07-23T12:14:56;99264.19;;;40.29;19.29
28079;BME280;15388;42.238;24.684;2022-07-23T12:17:26;99251.69;;;40.01;19.17
28079;BME280;15388;42.238;24.684;2022-07-23T12:19:52;99260.34;;;40.33;18.62
28079;BME280;15388;42.238;24.684;2022-07-23T12:22:19;99253.19;;;40.45;18.85
28079;BME280;15388;42.238;24.684;2022-07-23T12:24:57;99245.78;;;40.61;18.26
28079;BME280;15388;42.238;24.684;2022-07-23T12:27:23;99232.78;;;40.91;19.11
28079;BME280;15388;42.238;24.684;2022-07-23T12:29:49;99235.78;;;41.10;18.48
28079;BME280;15388;42.238;24.684;2022-07-23T12:32:18;99235.53;;;41.16;17.61
28079;BME280;15388;42.238;24.684;2022-07-23T12:34:44;99223.28;;;41.45;18.04
28079;BME280;15388;42.238;24.684;2022-07-23T12:37:28;99220.91;;;41.60;18.21
28079;BME280;15388;42.238;24.684;2022-07-23T12:39:54;99227.47;;;41.68;18.58
28079;BME280;15388;42.238;24.684;2022-07-23T12:42:19;99219.00;;;41.93;18.62
28079;BME280;15388;42.238;24.684;2022-07-23T12:47:29;99208.78;;;42.61;18.04
28079;BME280;15388;42.238;24.684;2022-07-23T12:49:54;99200.59;;;42.69;17.57
28079;BME280;15388;42.238;24.684;2022-07-23T12:52:19;99201.78;;;42.68;18.04
28079;BME280;15388;42.238;24.684;2022-07-23T12:54:45;99201.56;;;42.60;17.23
28079;BME280;15388;42.238;24.684;2022-07-23T12:57:10;99194.72;;;42.74;17.14
28079;BME280;15388;42.238;24.684;2022-07-23T12:59:35;99191.63;;;42.79;17.49
28079;BME280;15388;42.238;24.684;2022-07-23T13:02:02;99191.06;;;42.89;16.50
28079;BME280;15388;42.238;24.684;2022-07-23T13:04:27;99190.50;;;43.00;16.43
28079;BME280;15388;42.238;24.684;2022-07-23T13:06:56;99183.03;;;42.88;16.64
28079;BME280;15388;42.238;24.684;2022-07-23T13:09:29;99184.09;;;42.31;16.87
28079;BME280;15388;42.238;24.684;2022-07-23T13:11:55;99192.38;;;42.11;17.02
28079;BME280;15388;42.238;24.684;2022-07-23T13:14:21;99188.31;;;42.09;17.60
28079;BME280;15388;42.238;24.684;2022-07-23T13:16:47;99180.56;;;42.18;17.07
28079;BME280;15388;42.238;24.684;2022-07-23T13:19:13;99182.69;;;42.37;16.64
28079;BME280;15388;42.238;24.684;2022-07-23T13:21:38;99174.53;;;42.32;16.84
28079;BME280;15388;42.238;24.684;2022-07-23T13:24:04;99184.47;;;42.46;18.02
28079;BME280;15388;42.238;24.684;2022-07-23T13:26:29;99183.56;;;42.42;17.75